Time;durP1;ratioP1;P1;durP2;ratioP2;P2;SDS_P1;SDS_P2;PMS_P1;PMS_P2;Temp;Humidity;BMP_temperature;BMP_pressure;BME280_temperature;BME280_humidity;BME280_pressure;Samples;Min_cycle;Max_cycle;Signal;HPM_P1;HPM_P2
2023/04/25 00:01:03;;;;;;;20.33;4.90;;;5.80;99.90;;;;;;4995334;28;20104;-82
2023/04/25 00:03:29;;;;;;;17.37;4.37;;;5.80;99.90;;;;;;4995130;28;20054;-82
2023/04/25 00:05:56;;;;;;;20.10;4.80;;;5.80;99.90;;;;;;5012316;28;20124;-82
2023/04/25 00:08:22;;;;;;;16.43;4.07;;;5.70;99.90;;;;;;5013066;28;20040;-82
2023/04/25 00:10:48;;;;;;;19.80;4.27;;;5.70;99.90;;;;;;5017187;28;20045;-82
2023/04/25 00:13:17;;;;;;;25.70;4.70;;;5.70;99.90;;;;;;5012445;28;20042;-82
2023/04/25 00:15:42;;;;;;;18.37;4.37;;;5.80;99.90;;;;;;4996069;28;20437;-82
2023/04/25 00:18:08;;;;;;;18.80;4.80;;;6.40;99.90;;;;;;4999052;28;20494;-82
2023/04/25 00:20:35;;;;;;;18.57;4.57;;;5.70;99.90;;;;;;4995331;28;20046;-82
2023/04/25 00:23:01;;;;;;;21.10;4.60;;;5.80;99.90;;;;;;5012794;28;20045;-82
2023/04/25 00:25:26;;;;;;;15.33;3.97;;;7.10;99.90;;;;;;4997825;28;20050;-83
2023/04/25 00:27:52;;;;;;;20.40;4.57;;;5.70;99.90;;;;;;4999419;28;20056;-82
2023/04/25 00:30:18;;;;;;;22.07;4.47;;;6.60;99.90;;;;;;5013034;28;20053;-82
2023/04/25 00:32:43;;;;;;;18.80;4.30;;;5.70;99.90;;;;;;4995122;28;20038;-82
2023/04/25 00:35:09;;;;;;;17.00;4.13;;;5.70;99.90;;;;;;5011929;28;20049;-82
2023/04/25 00:37:35;;;;;;;18.60;4.50;;;5.70;99.90;;;;;;4994521;28;20132;-83
2023/04/25 00:40:01;;;;;;;23.83;4.33;;;5.70;99.90;;;;;;5012101;28;20475;-82
2023/04/25 00:42:28;;;;;;;16.73;4.00;;;5.70;99.90;;;;;;5011813;28;20120;-82
2023/04/25 00:44:54;;;;;;;20.57;4.93;;;6.90;99.90;;;;;;4994957;28;20054;-83
2023/04/25 00:47:20;;;;;;;15.80;4.37;;;5.60;99.90;;;;;;5012723;28;20096;-82
2023/04/25 00:49:45;;;;;;;23.10;4.87;;;5.50;99.90;;;;;;4994159;28;20058;-82
2023/04/25 00:52:11;;;;;;;20.50;4.60;;;5.50;99.90;;;;;;5012320;28;20078;-82
2023/04/25 00:54:37;;;;;;;17.00;5.03;;;5.40;99.90;;;;;;5209420;23;20148;-82
2023/04/25 00:57:03;;;;;;;17.50;5.00;;;5.40;99.90;;;;;;4994189;28;20042;-82
2023/04/25 00:59:30;;;;;;;22.63;4.87;;;5.30;99.90;;;;;;4995026;28;20052;-82
2023/04/25 01:01:56;;;;;;;19.07;5.03;;;5.20;99.90;;;;;;4997399;28;20379;-83
2023/04/25 01:04:22;;;;;;;19.07;5.33;;;5.10;99.90;;;;;;4994818;28;20448;-82
2023/04/25 01:06:49;;;;;;;21.67;4.93;;;5.10;99.90;;;;;;5012729;28;20038;-82
2023/04/25 01:09:14;;;;;;;16.63;4.30;;;5.10;99.90;;;;;;4993497;28;20369;-82
2023/04/25 01:11:40;;;;;;;18.80;4.60;;;5.10;99.90;;;;;;4994740;28;20133;-82
2023/04/25 01:14:06;;;;;;;22.30;5.27;;;5.10;99.90;;;;;;5012087;28;20081;-82
2023/04/25 01:16:32;;;;;;;23.67;5.33;;;5.10;99.90;;;;;;5011783;28;20042;-83
2023/04/25 01:18:59;;;;;;;17.37;4.17;;;5.10;99.90;;;;;;5012283;28;20069;-83
2023/04/25 01:21:27;;;;;;;14.83;4.80;;;5.70;99.90;;;;;;4994742;28;20045;-82
2023/04/25 01:23:53;;;;;;;18.63;4.17;;;5.10;99.90;;;;;;5011698;28;20054;-82
2023/04/25 01:26:21;;;;;;;19.07;4.63;;;5.10;99.90;;;;;;4994333;28;20045;-82
2023/04/25 01:28:48;;;;;;;19.33;4.40;;;5.10;99.90;;;;;;5012020;28;20046;-82
2023/04/25 01:31:15;;;;;;;21.27;4.57;;;5.10;99.90;;;;;;4993895;28;20382;-82
2023/04/25 01:33:40;;;;;;;15.47;4.30;;;5.00;99.90;;;;;;5012297;28;20061;-82
2023/04/25 01:36:06;;;;;;;14.77;4.10;;;5.00;99.90;;;;;;5014039;28;20482;-82
2023/04/25 01:38:32;;;;;;;15.83;4.07;;;5.00;99.90;;;;;;4996303;28;20049;-81
2023/04/25 01:40:58;;;;;;;17.70;4.47;;;4.90;99.90;;;;;;5034494;28;20045;-82
2023/04/25 01:43:24;;;;;;;16.47;4.20;;;4.90;99.90;;;;;;5007528;28;20057;-82
2023/04/25 01:45:51;;;;;;;16.00;5.07;;;4.80;99.90;;;;;;5016183;28;20441;-82
2023/04/25 01:48:16;;;;;;;14.67;3.90;;;4.80;99.90;;;;;;5001535;28;20482;-82
2023/04/25 01:50:45;;;;;;;17.70;4.33;;;4.70;99.90;;;;;;4999337;28;20044;-82
2023/04/25 01:53:13;;;;;;;14.73;4.77;;;4.70;99.90;;;;;;5014816;28;20058;-82
2023/04/25 01:55:38;;;;;;;16.70;4.07;;;4.70;99.90;;;;;;4998123;28;20623;-82
2023/04/25 01:58:09;;;;;;;18.10;4.10;;;4.70;99.90;;;;;;5014854;28;20128;-82
2023/04/25 02:00:35;;;;;;;16.20;4.47;;;4.70;99.90;;;;;;4998047;28;20188;-82
2023/04/25 02:03:00;;;;;;;20.17;4.33;;;4.70;99.90;;;;;;4980856;28;20108;-82
2023/04/25 02:05:26;;;;;;;16.70;4.03;;;4.70;99.90;;;;;;4996756;28;20050;-83
2023/04/25 02:07:52;;;;;;;16.50;4.53;;;6.00;99.90;;;;;;5015359;28;20046;-82
2023/04/25 02:10:18;;;;;;;20.40;5.23;;;4.60;99.90;;;;;;4997839;28;20129;-82
2023/04/25 02:12:44;;;;;;;15.30;4.20;;;4.60;99.90;;;;;;5001205;28;20066;-83
2023/04/25 02:15:10;;;;;;;16.60;4.23;;;4.60;99.90;;;;;;4997354;28;20049;-82
2023/04/25 02:17:36;;;;;;;19.70;4.40;;;4.60;99.90;;;;;;5015494;28;20116;-83
2023/04/25 02:20:01;;;;;;;18.50;4.90;;;4.60;99.90;;;;;;4996697;28;20482;-82
2023/04/25 02:22:29;;;;;;;15.73;4.80;;;4.60;99.90;;;;;;4997509;28;20085;-82
2023/04/25 02:24:55;;;;;;;19.47;5.60;;;4.60;99.90;;;;;;5014895;28;20116;-82
2023/04/25 02:27:21;;;;;;;17.73;4.90;;;5.50;99.90;;;;;;4996813;28;20510;-82
2023/04/25 02:29:46;;;;;;;16.50;4.50;;;4.70;99.90;;;;;;4997319;28;20060;-82
2023/04/25 02:32:12;;;;;;;21.07;4.70;;;4.70;99.90;;;;;;5014543;28;20038;-82
2023/04/25 02:34:38;;;;;;;18.30;4.73;;;4.70;99.90;;;;;;5014305;28;20144;-81
2023/04/25 02:37:03;;;;;;;20.20;4.70;;;4.70;99.90;;;;;;4997001;28;20045;-82
2023/04/25 02:39:29;;;;;;;21.47;5.70;;;4.70;99.90;;;;;;5014610;28;20040;-82
2023/04/25 02:41:54;;;;;;;17.90;4.77;;;4.70;99.90;;;;;;4996543;28;20038;-82
2023/04/25 02:44:20;;;;;;;17.13;4.73;;;4.80;99.90;;;;;;5014882;28;20045;-82
2023/04/25 02:46:46;;;;;;;16.87;5.00;;;4.80;99.90;;;;;;5000571;28;20042;-83
2023/04/25 02:49:11;;;;;;;20.00;5.57;;;4.80;99.90;;;;;;4981203;28;20141;-82
2023/04/25 02:51:37;;;;;;;21.70;4.67;;;4.80;99.90;;;;;;4994965;28;20047;-82
2023/04/25 02:54:07;;;;;;;22.77;4.77;;;4.80;99.90;;;;;;5007760;28;20408;-82
2023/04/25 02:56:32;;;;;;;20.43;4.77;;;4.80;99.90;;;;;;5013733;28;20494;-82
2023/04/25 02:58:59;;;;;;;18.73;4.63;;;4.80;99.90;;;;;;5013886;28;20049;-82
2023/04/25 03:01:24;;;;;;;19.77;5.73;;;4.80;99.90;;;;;;4996043;28;20057;-83
2023/04/25 03:03:50;;;;;;;20.03;4.73;;;4.80;99.90;;;;;;5014378;28;20042;-82
2023/04/25 03:06:16;;;;;;;16.67;4.90;;;4.80;99.90;;;;;;4996556;28;20042;-82
2023/04/25 03:08:41;;;;;;;23.37;4.87;;;4.80;99.90;;;;;;5013417;28;20034;-82
2023/04/25 03:11:08;;;;;;;23.27;4.80;;;4.80;99.90;;;;;;4998175;28;20478;-82
2023/04/25 03:13:34;;;;;;;18.57;4.53;;;4.80;99.90;;;;;;5008939;28;20140;-82
2023/04/25 03:15:59;;;;;;;18.17;4.60;;;5.60;99.90;;;;;;4996481;28;20125;-82
2023/04/25 03:18:25;;;;;;;16.37;4.40;;;4.80;99.90;;;;;;4997524;28;20080;-82
2023/04/25 03:20:51;;;;;;;15.30;4.73;;;4.80;99.90;;;;;;5017803;28;20042;-82
2023/04/25 03:23:16;;;;;;;17.60;4.80;;;4.80;99.90;;;;;;4998745;28;20483;-82
2023/04/25 03:25:42;;;;;;;18.07;5.00;;;4.80;99.90;;;;;;5013943;28;20108;-82
2023/04/25 03:28:07;;;;;;;24.37;5.13;;;5.70;99.90;;;;;;4996131;28;20045;-82
2023/04/25 03:30:33;;;;;;;18.13;4.70;;;4.80;99.90;;;;;;5012923;28;20490;-82
2023/04/25 03:32:59;;;;;;;17.70;4.50;;;4.80;99.90;;;;;;4996027;28;20092;-82
2023/04/25 03:35:24;;;;;;;14.17;4.20;;;4.80;99.90;;;;;;4996330;28;20459;-82
2023/04/25 03:37:50;;;;;;;17.30;4.10;;;4.80;99.90;;;;;;4995077;28;20054;-82
2023/04/25 03:40:16;;;;;;;20.23;4.63;;;4.80;99.90;;;;;;5013655;28;20073;-82
2023/04/25 03:42:41;;;;;;;20.83;4.17;;;5.60;99.90;;;;;;5013627;28;20038;-82
2023/04/25 03:45:07;;;;;;;17.47;4.07;;;4.80;99.90;;;;;;5012426;28;20045;-82
2023/04/25 03:47:33;;;;;;;15.40;3.67;;;4.80;99.90;;;;;;5013800;28;20037;-82
2023/04/25 03:50:00;;;;;;;23.43;5.20;;;4.80;99.90;;;;;;4995327;28;20141;-82
2023/04/25 03:52:25;;;;;;;18.73;3.53;;;4.80;99.90;;;;;;4995411;28;20046;-82
2023/04/25 03:54:51;;;;;;;19.67;4.53;;;5.30;99.90;;;;;;4995536;28;20057;-82
2023/04/25 03:57:17;;;;;;;18.90;4.00;;;4.80;99.90;;;;;;4997250;28;20045;-81
2023/04/25 03:59:42;;;;;;;16.00;3.20;;;4.80;99.90;;;;;;4994619;28;20089;-81
2023/04/25 04:02:08;;;;;;;19.57;4.43;;;4.80;99.90;;;;;;4989988;28;20128;-82
2023/04/25 04:04:33;;;;;;;15.33;3.90;;;4.80;99.90;;;;;;4994162;28;20046;-82
2023/04/25 04:06:59;;;;;;;10.90;3.30;;;4.80;99.90;;;;;;5011503;28;20046;-82
2023/04/25 04:09:25;;;;;;;14.40;3.30;;;4.70;99.90;;;;;;5012839;28;20157;-82
2023/04/25 04:11:51;;;;;;;19.23;3.60;;;5.20;99.90;;;;;;5012397;28;20045;-82
2023/04/25 04:14:17;;;;;;;16.57;3.30;;;4.80;99.90;;;;;;4994953;28;20046;-82
2023/04/25 04:16:42;;;;;;;17.17;3.77;;;4.70;99.90;;;;;;5012737;28;20053;-82
2023/04/25 04:19:11;;;;;;;11.73;2.80;;;4.80;99.90;;;;;;5010987;28;20104;-82
2023/04/25 04:21:36;;;;;;;13.43;3.37;;;5.40;99.90;;;;;;5012917;28;20129;-82
2023/04/25 04:24:03;;;;;;;14.73;3.13;;;5.00;99.90;;;;;;4994831;28;20136;-82
2023/04/25 04:26:28;;;;;;;16.20;3.43;;;4.70;99.90;;;;;;5012345;28;20044;-82
2023/04/25 04:28:54;;;;;;;20.50;3.80;;;4.70;99.90;;;;;;5013144;28;20054;-82
2023/04/25 04:31:23;;;;;;;15.17;2.90;;;4.70;99.90;;;;;;5013463;28;20045;-82
2023/04/25 04:33:49;;;;;;;13.23;2.70;;;4.70;99.90;;;;;;4995918;28;20049;-82
2023/04/25 04:36:15;;;;;;;15.30;2.97;;;4.70;99.90;;;;;;5012439;28;20410;-82
2023/04/25 04:38:42;;;;;;;11.90;2.90;;;4.70;99.90;;;;;;4995575;28;20046;-81
2023/04/25 04:41:08;;;;;;;15.23;3.70;;;5.20;99.90;;;;;;4994093;28;20045;-82
2023/04/25 04:43:33;;;;;;;12.90;2.73;;;5.70;99.90;;;;;;5015796;28;20053;-81
2023/04/25 04:46:03;;;;;;;13.00;2.57;;;4.60;99.90;;;;;;4996149;28;20046;-82
2023/04/25 04:48:32;;;;;;;11.67;2.60;;;5.30;99.90;;;;;;5013123;28;20046;-82
2023/04/25 04:50:58;;;;;;;9.93;2.40;;;4.60;99.90;;;;;;5023515;28;20038;-82
2023/04/25 04:53:24;;;;;;;9.57;2.43;;;4.60;99.90;;;;;;4995953;28;20144;-82
2023/04/25 04:55:50;;;;;;;10.63;2.60;;;4.60;99.90;;;;;;5012795;28;20076;-82
2023/04/25 04:58:15;;;;;;;9.77;2.10;;;5.30;99.90;;;;;;5012156;28;20046;-82
2023/04/25 05:00:41;;;;;;;13.47;2.57;;;4.60;99.90;;;;;;5012797;28;20050;-82
2023/04/25 05:03:09;;;;;;;10.13;2.37;;;4.50;99.90;;;;;;4994313;28;20064;-82
2023/04/25 05:05:39;;;;;;;10.50;2.13;;;4.60;99.90;;;;;;4995132;28;20049;-82
2023/04/25 05:08:05;;;;;;;11.50;2.70;;;4.60;99.90;;;;;;5013823;28;20081;-82
2023/04/25 05:10:31;;;;;;;10.77;2.33;;;4.60;99.90;;;;;;4995016;28;20037;-82
2023/04/25 05:12:57;;;;;;;11.17;2.40;;;4.60;99.90;;;;;;4994837;28;20049;-82
2023/04/25 05:15:23;;;;;;;11.90;2.20;;;4.80;99.90;;;;;;4994003;28;20041;-82
2023/04/25 05:17:48;;;;;;;10.30;2.40;;;4.80;99.90;;;;;;4996099;28;20129;-82
2023/04/25 05:20:15;;;;;;;11.53;2.40;;;4.90;99.90;;;;;;4998591;28;20284;-82
2023/04/25 05:22:43;;;;;;;10.53;2.70;;;4.90;99.90;;;;;;4996821;28;20564;-82
2023/04/25 05:25:09;;;;;;;7.57;1.93;;;5.00;99.90;;;;;;4981593;28;20084;-82
2023/04/25 05:27:35;;;;;;;9.30;2.20;;;6.20;99.90;;;;;;4998809;28;20042;-82
2023/04/25 05:30:00;;;;;;;9.80;2.30;;;5.80;99.90;;;;;;4997072;28;20559;-82
2023/04/25 05:32:26;;;;;;;9.43;2.30;;;5.10;99.90;;;;;;4998485;28;20049;-82
2023/04/25 05:34:52;;;;;;;8.80;2.07;;;5.10;99.90;;;;;;5015674;28;20042;-81
2023/04/25 05:37:18;;;;;;;9.53;2.20;;;5.10;99.90;;;;;;4996917;28;20044;-81
2023/04/25 05:39:43;;;;;;;14.10;2.73;;;5.10;99.90;;;;;;5015273;28;20139;-81
2023/04/25 05:42:10;;;;;;;11.70;2.13;;;5.00;99.90;;;;;;4997545;28;20038;-80
2023/04/25 05:44:35;;;;;;;12.50;2.50;;;5.00;99.90;;;;;;4996740;28;20533;-81
2023/04/25 05:47:01;;;;;;;11.47;2.20;;;5.00;99.90;;;;;;5015085;28;20041;-80
2023/04/25 05:49:27;;;;;;;12.90;2.60;;;5.00;99.90;;;;;;5015315;28;20046;-81
2023/04/25 05:51:52;;;;;;;11.27;2.50;;;5.10;99.90;;;;;;4997335;28;20046;-81
2023/04/25 05:54:19;;;;;;;8.73;2.00;;;5.10;99.90;;;;;;5014701;28;20052;-81
2023/04/25 05:56:45;;;;;;;11.37;2.60;;;5.10;99.90;;;;;;4998081;28;20046;-81
2023/04/25 05:59:21;;;;;;;13.37;3.33;;;5.10;99.90;;;;;;5013865;28;20506;-82
2023/04/25 06:01:56;;;;;;;10.43;2.30;;;5.10;99.90;;;;;;4997862;28;20049;-81
2023/04/25 06:04:37;;;;;;;10.10;2.50;;;5.60;99.90;;;;;;4996761;28;20045;-81
2023/04/25 06:07:02;;;;;;;14.77;2.47;;;5.70;99.90;;;;;;5015008;28;20037;-81
2023/04/25 06:09:29;;;;;;;9.67;2.33;;;5.60;99.90;;;;;;4997307;28;20116;-82
2023/04/25 06:12:17;;;;;;;14.50;2.60;;;4.90;99.90;;;;;;4996668;28;20096;-80
2023/04/25 06:15:01;;;;;;;22.37;12.20;;;7.30;99.90;;;;;;4998124;28;20062;-80
2023/04/25 06:17:26;;;;;;;11.82;2.35;;;5.80;99.90;;;;;;5015353;28;20061;-80
2023/04/25 06:19:52;;;;;;;10.40;2.20;;;5.60;99.90;;;;;;5014632;28;20046;-82
2023/04/25 06:22:18;;;;;;;11.00;2.30;;;5.80;99.90;;;;;;4999169;28;20390;-81
2023/04/25 06:24:44;;;;;;;12.37;3.37;;;5.90;99.90;;;;;;5015859;28;20042;-81
2023/04/25 06:27:09;;;;;;;11.80;3.00;;;5.90;99.90;;;;;;4996718;28;20061;-81
2023/04/25 06:29:35;;;;;;;12.03;2.33;;;6.10;99.90;;;;;;5014510;28;20046;-81
2023/04/25 06:32:01;;;;;;;11.50;2.37;;;6.20;99.90;;;;;;5014655;28;20526;-81
2023/04/25 06:34:26;;;;;;;15.30;2.43;;;6.20;99.90;;;;;;4996192;28;20065;-81
2023/04/25 06:36:52;;;;;;;26.57;17.43;;;6.20;99.90;;;;;;5014379;28;20138;-81
2023/04/25 06:39:19;;;;;;;16.23;7.43;;;6.20;99.90;;;;;;4996379;28;20038;-80
2023/04/25 06:41:45;;;;;;;9.57;2.27;;;6.40;99.90;;;;;;5014052;28;20037;-80
2023/04/25 06:44:11;;;;;;;25.00;12.40;;;6.50;99.90;;;;;;4999784;23;20222;-79
2023/04/25 06:46:40;;;;;;;17.10;7.43;;;6.60;99.90;;;;;;4994017;28;20403;-80
2023/04/25 06:49:06;;;;;;;19.87;7.63;;;7.60;99.90;;;;;;4994183;28;20053;-78
2023/04/25 06:51:31;;;;;;;14.57;4.10;;;6.80;99.90;;;;;;4993780;28;20042;-79
2023/04/25 06:53:57;;;;;;;59.07;39.47;;;8.00;99.90;;;;;;4991320;28;20054;-79
2023/04/25 06:56:23;;;;;;;11.85;2.42;;;6.90;99.90;;;;;;4992663;28;20359;-82
2023/04/25 06:58:49;;;;;;;14.73;4.90;;;6.90;99.90;;;;;;4992477;28;20042;-81
2023/04/25 07:01:15;;;;;;;17.13;6.73;;;6.90;99.90;;;;;;4991825;28;20054;-80
2023/04/25 07:03:41;;;;;;;11.53;2.33;;;6.90;99.90;;;;;;4992584;28;20049;-79
2023/04/25 07:06:06;;;;;;;9.23;2.17;;;7.60;99.90;;;;;;4981783;23;20035;-78
2023/04/25 07:08:32;;;;;;;14.47;3.00;;;6.90;99.90;;;;;;4974155;28;20403;-79
2023/04/25 07:10:58;;;;;;;17.90;8.07;;;6.90;99.90;;;;;;4974409;28;20118;-80
2023/04/25 07:13:23;;;;;;;10.17;3.47;;;7.00;99.90;;;;;;4973320;28;20106;-79
2023/04/25 07:15:49;;;;;;;11.83;2.23;;;7.10;99.90;;;;;;4972685;28;20557;-80
2023/04/25 07:18:15;;;;;;;16.05;2.58;;;7.10;99.90;;;;;;4974158;28;20442;-80
2023/04/25 07:20:41;;;;;;;16.63;6.00;;;7.00;99.90;;;;;;4973470;28;20611;-80
2023/04/25 07:23:07;;;;;;;11.73;3.47;;;6.90;99.90;;;;;;5023061;23;20057;-81
2023/04/25 07:25:32;;;;;;;10.83;2.60;;;6.90;99.90;;;;;;5032167;28;20057;-81
2023/04/25 07:27:58;;;;;;;11.05;2.10;;;7.00;99.90;;;;;;5032149;28;20519;-80
2023/04/25 07:30:24;;;;;;;12.52;2.75;;;7.10;99.90;;;;;;5032545;28;20049;-81
2023/04/25 07:32:50;;;;;;;11.85;2.65;;;7.20;99.90;;;;;;5033763;28;20436;-82
2023/04/25 07:35:17;;;;;;;9.02;2.03;;;8.60;99.90;;;;;;5031483;28;20041;-83
2023/04/25 07:37:45;;;;;;;12.65;2.42;;;7.40;99.90;;;;;;5032298;28;20069;-84
2023/04/25 07:40:11;;;;;;;13.20;4.78;;;8.50;99.90;;;;;;5035248;28;20037;-80
2023/04/25 07:42:37;;;;;;;9.60;2.38;;;7.20;99.90;;;;;;5019873;28;20398;-81
2023/04/25 07:45:03;;;;;;;9.45;2.28;;;7.20;99.90;;;;;;5025463;28;20041;-80
2023/04/25 07:47:28;;;;;;;9.88;1.90;;;7.10;99.90;;;;;;5054333;28;20065;-80
2023/04/25 07:49:54;;;;;;;7.53;1.70;;;8.00;99.90;;;;;;5035457;22;20557;-79
2023/04/25 07:52:20;;;;;;;8.73;1.85;;;7.40;99.90;;;;;;4995613;28;20161;-80
2023/04/25 07:54:47;;;;;;;10.77;2.67;;;7.50;99.90;;;;;;5014537;28;20129;-80
2023/04/25 07:57:13;;;;;;;9.25;2.33;;;7.60;99.90;;;;;;4996417;28;20057;-80
2023/04/25 07:59:39;;;;;;;9.48;1.90;;;7.80;99.90;;;;;;4995612;28;20074;-80
2023/04/25 08:02:05;;;;;;;9.80;1.92;;;7.90;99.90;;;;;;4994972;28;20498;-80
2023/04/25 08:04:31;;;;;;;11.52;2.88;;;8.00;99.90;;;;;;4994729;28;20100;-80
2023/04/25 08:06:56;;;;;;;12.20;2.25;;;7.80;99.90;;;;;;5012480;28;20049;-80
2023/04/25 08:09:22;;;;;;;8.95;2.30;;;7.90;99.90;;;;;;4995070;28;20040;-80
2023/04/25 08:11:48;;;;;;;11.35;1.90;;;7.90;99.90;;;;;;5012182;28;20112;-80
2023/04/25 08:14:14;;;;;;;8.30;1.90;;;8.00;99.90;;;;;;4995017;28;20046;-80
2023/04/25 08:16:40;;;;;;;8.23;1.98;;;7.90;99.90;;;;;;4994988;28;20046;-81
2023/04/25 08:19:06;;;;;;;8.90;2.00;;;8.00;99.90;;;;;;5011925;28;20053;-81
2023/04/25 08:21:32;;;;;;;11.02;3.30;;;9.00;99.90;;;;;;5012682;28;20551;-80
2023/04/25 08:23:58;;;;;;;11.85;2.95;;;8.20;99.90;;;;;;4994729;28;20138;-80
2023/04/25 08:26:24;;;;;;;6.05;1.52;;;8.10;99.90;;;;;;5012215;28;20081;-81
2023/04/25 08:28:50;;;;;;;7.85;1.70;;;7.90;99.90;;;;;;4994809;28;20088;-80
2023/04/25 08:31:17;;;;;;;8.75;1.98;;;7.80;99.90;;;;;;4994608;28;20033;-80
2023/04/25 08:33:45;;;;;;;7.30;2.13;;;7.50;99.90;;;;;;5012006;28;20128;-80
2023/04/25 08:36:11;;;;;;;7.22;1.70;;;8.20;99.90;;;;;;5012008;28;20041;-81
2023/04/25 08:38:36;;;;;;;7.68;1.73;;;8.60;99.90;;;;;;5012591;28;20080;-80
2023/04/25 08:41:02;;;;;;;7.70;2.53;;;8.80;99.90;;;;;;4993812;28;20106;-81
2023/04/25 08:43:31;;;;;;;6.07;2.00;;;8.90;99.90;;;;;;5012239;28;20394;-81
2023/04/25 08:46:00;;;;;;;12.82;3.55;;;8.70;99.90;;;;;;5012284;28;20140;-81
2023/04/25 08:48:32;;;;;;;9.38;1.90;;;8.60;99.90;;;;;;4994698;28;20046;-83
2023/04/25 08:50:58;;;;;;;7.55;2.10;;;8.30;99.90;;;;;;5012325;28;20061;-81
2023/04/25 08:53:30;;;;;;;7.95;1.80;;;8.20;99.90;;;;;;4997918;28;20410;-81
2023/04/25 08:56:01;;;;;;;8.40;1.80;;;8.50;99.90;;;;;;4998795;28;20049;-80
2023/04/25 08:58:27;;;;;;;7.65;1.80;;;7.30;99.90;;;;;;5000527;28;20057;-81
2023/04/25 09:00:53;;;;;;;5.90;1.60;;;6.90;99.90;;;;;;5017178;28;20069;-80
2023/04/25 09:03:19;;;;;;;8.40;1.80;;;6.60;99.90;;;;;;4998722;28;20497;-78
2023/04/25 09:05:45;;;;;;;9.13;1.85;;;6.50;99.90;;;;;;4998048;28;20180;-79
2023/04/25 09:08:10;;;;;;;9.85;2.05;;;6.40;99.90;;;;;;5014552;28;20076;-79
2023/04/25 09:10:37;;;;;;;7.28;2.00;;;7.20;99.90;;;;;;4998555;28;20474;-79
2023/04/25 09:13:08;;;;;;;7.38;1.63;;;6.50;99.90;;;;;;4998197;28;20050;-79
2023/04/25 09:15:53;;;;;;;8.77;2.38;;;6.80;99.90;;;;;;4996086;28;20402;-79
2023/04/25 09:18:37;;;;;;;12.53;2.33;;;7.10;99.90;;;;;;5015518;28;20034;-79
2023/04/25 09:21:11;;;;;;;11.02;2.05;;;7.40;99.90;;;;;;5015631;28;20046;-79
2023/04/25 09:23:55;;;;;;;9.00;1.85;;;7.80;99.90;;;;;;5013874;28;20038;-79
2023/04/25 09:26:21;;;;;;;9.63;1.75;;;8.10;99.90;;;;;;4997888;28;20397;-79
2023/04/25 09:28:49;;;;;;;5.43;1.50;;;8.50;99.90;;;;;;5015625;28;20041;-79
2023/04/25 09:31:24;;;;;;;6.82;1.60;;;8.70;99.90;;;;;;5015112;28;20041;-79
2023/04/25 09:33:49;;;;;;;9.15;1.70;;;9.20;99.90;;;;;;4998042;28;20050;-83
2023/04/25 09:36:15;;;;;;;8.35;1.70;;;9.00;99.90;;;;;;5014473;28;20048;-81
2023/04/25 09:38:46;;;;;;;7.55;1.65;;;8.90;99.90;;;;;;4998054;28;20042;-81
2023/04/25 09:41:12;;;;;;;6.80;1.70;;;8.80;99.90;;;;;;5015097;28;20410;-79
2023/04/25 09:43:38;;;;;;;8.35;1.60;;;8.60;99.90;;;;;;4995880;28;20045;-80
2023/04/25 09:46:09;;;;;;;7.28;1.63;;;8.50;99.90;;;;;;5017591;28;20036;-79
2023/04/25 09:48:35;;;;;;;6.65;1.55;;;8.40;99.90;;;;;;5015149;28;20046;-80
2023/04/25 09:51:13;;;;;;;4.63;1.48;;;8.40;99.90;;;;;;4996490;28;20050;-79
2023/04/25 09:53:44;;;;;;;6.18;1.60;;;8.30;99.90;;;;;;5015446;28;20100;-80
2023/04/25 09:56:11;;;;;;;7.55;1.55;;;8.30;99.90;;;;;;5014848;28;20042;-79
2023/04/25 09:58:41;;;;;;;5.35;1.30;;;8.30;99.90;;;;;;5015434;28;20048;-78
2023/04/25 10:01:09;;;;;;;10.82;3.53;;;8.10;99.90;;;;;;5016159;28;20038;-78
2023/04/25 10:03:39;;;;;;;7.55;2.03;;;8.00;99.90;;;;;;5013671;28;20057;-78
2023/04/25 10:06:10;;;;;;;6.47;1.48;;;7.90;99.90;;;;;;4997084;28;20049;-79
2023/04/25 10:08:37;;;;;;;7.85;2.20;;;7.70;99.90;;;;;;5015171;28;20046;-81
2023/04/25 10:11:05;;;;;;;7.97;2.88;;;7.70;99.90;;;;;;5014002;28;20049;-81
2023/04/25 10:13:32;;;;;;;9.35;2.45;;;7.90;99.90;;;;;;5014945;28;20057;-81
2023/04/25 10:16:00;;;;;;;21.25;10.48;;;8.30;99.90;;;;;;4997272;28;20087;-79
2023/04/25 10:18:27;;;;;;;9.60;1.80;;;8.50;99.90;;;;;;5014276;28;20046;-80
2023/04/25 10:20:55;;;;;;;10.10;4.15;;;8.70;99.90;;;;;;5014989;28;20509;-80
2023/04/25 10:23:21;;;;;;;11.93;3.78;;;9.60;99.90;;;;;;4996746;28;20050;-79
2023/04/25 10:25:49;;;;;;;14.20;5.43;;;8.60;99.90;;;;;;4996046;28;20045;-79
2023/04/25 10:28:14;;;;;;;10.95;1.90;;;8.70;99.90;;;;;;4997118;28;20068;-79
2023/04/25 10:30:56;;;;;;;7.75;1.80;;;9.00;99.90;;;;;;5014846;28;20769;-79
2023/04/25 10:33:41;;;;;;;10.38;2.85;;;9.30;99.90;;;;;;5014093;28;20050;-79
2023/04/25 10:36:27;;;;;;;5.97;1.58;;;9.40;99.90;;;;;;4996504;28;20161;-79
2023/04/25 10:38:54;;;;;;;11.27;1.90;;;9.70;99.90;;;;;;5013922;28;20042;-79
2023/04/25 10:41:22;;;;;;;6.93;1.58;;;10.10;99.90;;;;;;5014600;28;20041;-79
2023/04/25 10:43:50;;;;;;;9.18;2.30;;;10.30;99.90;;;;;;5014012;28;20050;-79
2023/04/25 10:46:23;;;;;;;9.45;2.05;;;9.70;99.90;;;;;;4995341;28;20052;-80
2023/04/25 10:48:51;;;;;;;8.38;1.90;;;8.60;99.90;;;;;;5014235;28;20488;-81
2023/04/25 10:51:21;;;;;;;8.05;1.70;;;7.30;99.90;;;;;;4999002;28;20068;-81
2023/04/25 10:53:57;;;;;;;9.32;1.85;;;6.50;99.90;;;;;;4997440;28;20045;-81
2023/04/25 10:56:26;;;;;;;6.15;1.70;;;6.10;99.90;;;;;;5014717;28;20108;-81
2023/04/25 10:59:03;;;;;;;6.88;1.85;;;6.00;99.90;;;;;;4999593;28;20156;-81
2023/04/25 11:01:51;;;;;;;9.52;1.80;;;6.20;99.90;;;;;;4999090;28;20393;-82
2023/04/25 11:04:38;;;;;;;7.78;1.90;;;6.70;99.90;;;;;;4999574;28;20049;-82
2023/04/25 11:07:07;;;;;;;6.10;1.70;;;6.90;99.90;;;;;;5013728;28;20038;-81
2023/04/25 11:09:38;;;;;;;8.75;1.65;;;8.40;99.90;;;;;;5015782;28;20054;-82
2023/04/25 11:12:04;;;;;;;9.55;2.08;;;7.50;99.90;;;;;;5013423;28;20038;-80
2023/04/25 11:14:30;;;;;;;8.75;3.00;;;7.80;99.90;;;;;;5013367;28;20233;-81
2023/04/25 11:16:59;;;;;;;12.30;7.30;;;8.20;99.90;;;;;;4992385;28;20107;-80
2023/04/25 11:19:26;;;;;;;8.98;2.47;;;8.60;99.90;;;;;;4996239;28;20412;-80
2023/04/25 11:21:57;;;;;;;9.02;2.00;;;9.00;99.90;;;;;;5012578;28;20494;-80
2023/04/25 11:24:34;;;;;;;12.00;2.58;;;9.60;99.90;;;;;;4995492;28;20073;-80
2023/04/25 11:27:02;;;;;;;8.95;2.05;;;10.00;99.90;;;;;;4993966;28;20038;-81
2023/04/25 11:29:29;;;;;;;9.25;2.50;;;10.10;99.90;;;;;;5013062;28;20408;-81
2023/04/25 11:31:58;;;;;;;10.13;2.03;;;10.10;99.90;;;;;;5013697;28;20046;-81
2023/04/25 11:34:25;;;;;;;9.20;1.88;;;9.70;99.90;;;;;;5013271;28;20050;-80
2023/04/25 11:36:52;;;;;;;10.10;4.00;;;9.40;99.90;;;;;;4979695;28;20807;-80
2023/04/25 11:39:19;;;;;;;13.00;3.70;;;9.10;99.90;;;;;;5012877;28;20038;-81
2023/04/25 11:41:44;;;;;;;11.80;5.97;;;8.60;99.90;;;;;;4995444;28;20091;-81
2023/04/25 11:44:10;;;;;;;12.57;6.38;;;8.60;99.90;;;;;;5011912;28;20049;-81
2023/04/25 11:46:37;;;;;;;9.70;2.60;;;8.90;99.90;;;;;;4994114;28;20054;-81
2023/04/25 11:49:04;;;;;;;6.90;1.65;;;9.00;99.90;;;;;;5011155;28;20515;-80
2023/04/25 11:51:37;;;;;;;8.15;2.13;;;8.30;99.90;;;;;;5013665;28;20065;-81
2023/04/25 11:54:03;;;;;;;8.25;1.80;;;7.50;99.90;;;;;;4994602;28;20084;-80
2023/04/25 11:56:32;;;;;;;6.53;1.65;;;7.20;99.90;;;;;;5011479;28;20496;-80
2023/04/25 11:59:05;;;;;;;6.03;1.70;;;6.50;99.90;;;;;;5012058;28;20049;-80
2023/04/25 12:01:36;;;;;;;9.52;1.95;;;6.50;99.90;;;;;;5010640;28;20042;-80
2023/04/25 12:04:17;;;;;;;6.30;1.80;;;6.70;99.90;;;;;;5011279;28;20045;-80
2023/04/25 12:06:47;;;;;;;8.23;2.08;;;8.20;99.90;;;;;;5012313;28;20516;-80
2023/04/25 12:09:13;;;;;;;5.97;1.65;;;8.00;99.90;;;;;;5012565;28;20049;-79
2023/04/25 12:11:47;;;;;;;9.93;2.03;;;8.60;99.90;;;;;;5012040;28;20115;-80
2023/04/25 12:14:22;;;;;;;7.30;1.77;;;9.10;99.90;;;;;;5012206;28;20517;-79
2023/04/25 12:16:51;;;;;;;5.93;1.80;;;9.50;99.90;;;;;;4995227;28;20069;-80
2023/04/25 12:19:17;;;;;;;5.82;1.73;;;9.80;99.90;;;;;;5012149;28;20056;-80
2023/04/25 12:21:44;;;;;;;7.18;1.63;;;10.30;99.90;;;;;;4997179;28;20050;-80
2023/04/25 12:24:22;;;;;;;6.53;1.90;;;10.20;99.90;;;;;;5015885;28;20042;-80
2023/04/25 12:27:00;;;;;;;7.80;1.90;;;9.80;99.90;;;;;;4995093;28;20212;-80
2023/04/25 12:29:28;;;;;;;19.17;10.32;;;9.90;99.90;;;;;;4998701;28;20412;-81
2023/04/25 12:31:55;;;;;;;12.68;2.65;;;10.00;99.90;;;;;;4997915;28;20056;-80
2023/04/25 12:34:22;;;;;;;10.98;2.05;;;10.00;99.90;;;;;;4997480;28;20045;-80
2023/04/25 12:36:49;;;;;;;9.93;2.00;;;10.20;99.90;;;;;;5028271;28;20389;-80
2023/04/25 12:39:24;;;;;;;10.10;2.13;;;10.50;99.90;;;;;;5014006;28;20362;-80
2023/04/25 12:41:54;;;;;;;12.05;2.55;;;11.50;99.90;;;;;;5017641;28;20072;-80
2023/04/25 12:44:20;;;;;;;11.25;2.40;;;10.70;99.90;;;;;;5032316;28;20100;-80
2023/04/25 12:46:47;;;;;;;8.88;1.75;;;10.50;99.90;;;;;;5014151;28;20077;-80
2023/04/25 12:49:13;;;;;;;10.23;2.00;;;10.80;99.90;;;;;;5032061;28;20536;-80
2023/04/25 12:51:39;;;;;;;7.13;1.77;;;11.00;99.90;;;;;;5032039;28;20042;-80